METAR Data
IDs: Format: Raw Decoded Include TAF

Data at: 1846 UTC 16 Oct 2021

KBAZ 161751Z AUTO 02013G23KT 10SM CLR 23/05 A3034 RMK AO2 SLP269 60000 T02280050 10228 20128 58002
KBAZ 161651Z AUTO 03017G24KT 10SM CLR 21/05 A3036 RMK AO2 PK WND 05027/1623 SLP275 T02110050
KBAZ 161551Z AUTO 05018G25KT 10SM CLR 21/07 A3036 RMK AO2 RAE16 SLP275 P0000 T02060067
KBAZ 161451Z AUTO 04015G21KT 10SM -RA CLR 18/07 A3035 RMK AO2 RAB50 SLP272 P0000 60000 T01830072 51018
KBAZ 161351Z AUTO 02011KT 10SM CLR 16/07 A3033 RMK AO2 SLP266 T01610072
KBAZ 161251Z AUTO 02007KT 10SM CLR 13/07 A3031 RMK AO2 SLP260 T01280072
KBAZ 161151Z AUTO 02007KT 10SM CLR 13/07 A3029 RMK AO2 SLP253 70002 T01330067 10189 20133 53020
KBAZ 161051Z AUTO 03008KT 10SM CLR 14/07 A3026 RMK AO2 SLP242 T01440067
KBAZ 160951Z AUTO 03010KT 10SM CLR 16/07 A3024 RMK AO2 SLP235 T01560067
KBAZ 160851Z AUTO 02010G18KT 10SM CLR 17/07 A3023 RMK AO2 SLP231 T01670067 51012
KBAZ 160751Z AUTO 01013G22KT 10SM CLR 17/07 A3022 RMK AO2 SLP225 T01720072
KBAZ 160651Z AUTO 02013G25KT 10SM OVC080 18/08 A3022 RMK AO2 SLP225 T01830078
KBAZ 160551Z AUTO 02015G21KT 10SM FEW080 19/09 A3020 RMK AO2 SLP218 T01890089 10239 20189 51024
KBAZ 160451Z AUTO 02013G21KT 10SM CLR 19/11 A3019 RMK AO2 SLP215 T01940106 403280194
KBAZ 160351Z AUTO 02013KT 10SM CLR 21/12 A3017 RMK AO2 SLP208 T02060117
KBAZ 160251Z AUTO 02016G23KT 10SM CLR 22/12 A3012 RMK AO2 SLP193 T02170122 53030
KBAZ 160151Z AUTO 02015G26KT 10SM CLR 22/14 A3006 RMK AO2 PK WND 02027/0138 SLP173 T02220139
KBAZ 160051Z AUTO 01013KT 10SM FEW120 23/14 A3005 RMK AO2 SLP170 T02280139
KBAZ 152351Z AUTO 02015G21KT 10SM BKN070 24/15 A3003 RMK AO2 SLP162 60002 T02390150 10328 20239 51035
KBAZ 152251Z AUTO 02016G21KT 10SM FEW120 27/17 A2999 RMK AO2 SLP148 T02670172
KBAZ 152151Z AUTO 36011G20KT 10SM FEW050 SCT070 25/15 A2998 RMK AO2 RAE08 SLP143 P0000 T02500150
KBAZ 152051Z AUTO 02018G25KT 5SM RA SCT047 29/21 A2993 RMK AO2 LTG DSNT SW AND W RAB49 SLP125 P0002 60002 T02890211 56015
KBAZ 151951Z AUTO 36007KT 10SM FEW110 33/22 A2993 RMK AO2 SLP127 T03280217
KBAZ 151851Z AUTO 27006KT 10SM SCT039 BKN046 32/22 A2995 RMK AO2 SLP133 T03170222
KBAZ 151751Z AUTO 00000KT 10SM FEW026 FEW043 FEW050 31/24 A2997 RMK AO2 SLP141 T03060239 10311 20228 58003
KBAZ 151714Z AUTO 29003KT 10SM FEW021 29/24 A2998 RMK AO2 T02940239
KBAZ 151651Z AUTO 35005KT 9SM BKN022 BKN027 OVC039 29/24 A2999 RMK AO2 SLP146 T02940239
KBAZ 151649Z AUTO VRB03KT 9SM BKN024 OVC039 29/24 A2999 RMK AO2
KBAZ 151629Z AUTO 00000KT 9SM SCT012 SCT019 OVC040 28/24 A2999 RMK AO2 T02780239
KBAZ 151615Z AUTO VRB03KT 8SM BKN011 OVC040 28/24 A2999 RMK AO2 T02780244
KBAZ 151558Z AUTO 00000KT 7SM BKN009 OVC013 28/24 A2999 RMK AO2 CIG 006V012 T02780244
KBAZ 151551Z AUTO 18004KT 7SM BKN007 OVC011 27/24 A2998 RMK AO2 CIG 006V010 SLP145 T02670244
KBAZ 151541Z AUTO 00000KT 6SM BR OVC006 26/24 A2998 RMK AO2 T02610239
KBAZ 151525Z AUTO 00000KT 6SM BR OVC005 26/24 A2997 RMK AO2 CIG 004V008 T02610239
KBAZ 151451Z AUTO 00000KT 5SM BR OVC003 25/24 A2996 RMK AO2 SLP139 T02500239 53023
KBAZ 151427Z AUTO 00000KT 3SM BR OVC003 24/23 A2996 RMK AO2 T02440233
KBAZ 151400Z AUTO 00000KT 2 1/2SM BR OVC003 24/23 A2995 RMK AO2 T02390233
KBAZ 151351Z AUTO 00000KT 3SM BR OVC004 24/23 A2994 RMK AO2 SLP132 T02390228
KBAZ 151251Z AUTO 00000KT 7SM OVC004 23/22 A2991 RMK AO2 SLP122 T02280222
KBAZ 151231Z AUTO 00000KT 7SM OVC004 23/22 A2991 RMK AO2 T02280222
KBAZ 151201Z AUTO 00000KT 7SM BKN005 OVC012 23/22 A2990 RMK AO2 T02280222
KBAZ 151151Z AUTO 16003KT 8SM BKN006 BKN014 OVC032 23/22 A2989 RMK AO2 SLP115 T02280222 10228 20211 53008
KBAZ 151123Z AUTO 00000KT 7SM OVC006 23/22 A2989 RMK AO2 T02280222
KBAZ 151051Z AUTO 00000KT 8SM OVC005 23/22 A2988 RMK AO2 SLP110 T02280222
KBAZ 151048Z AUTO 00000KT 8SM OVC005 23/22 A2988 RMK AO2
KBAZ 151025Z AUTO 34003KT 7SM BKN006 OVC012 22/22 A2987 RMK AO2 T02220217
KBAZ 151013Z AUTO 00000KT 6SM BR SCT007 OVC014 22/22 A2987 RMK AO2 T02220217
KBAZ 150951Z AUTO 00000KT 6SM BR OVC008 22/22 A2987 RMK AO2 CIG 005V011 SLP107 T02220217
KBAZ 150929Z AUTO 00000KT 4SM BR BKN006 OVC010 22/21 A2987 RMK AO2 T02170211
KBAZ 150913Z AUTO 00000KT 2SM BR BKN009 BKN019 21/21 A2986 RMK AO2 VIS 1 1/4V2 1/2 CIG 007V013 T02110211
KBAZ 150858Z AUTO 00000KT 2 1/2SM BR SCT009 BKN019 22/21 A2987 RMK AO2 T02170211
KBAZ 150851Z AUTO 00000KT 2SM BR BKN009 OVC019 22/21 A2987 RMK AO2 CIG 007V013 SLP105 T02170211 58002
KBAZ 150848Z AUTO 00000KT 1 3/4SM BR BKN010 OVC019 22/21 A2987 RMK AO2 CIG 007V013
KBAZ 150841Z AUTO 00000KT 1 1/4SM BR BKN010 BKN019 22/21 A2987 RMK AO2 CIG 007V012 T02170211
KBAZ 150834Z AUTO 00000KT 1SM BR BKN008 BKN019 21/21 A2987 RMK AO2 CIG 007V012 T02110211
KBAZ 150827Z AUTO 00000KT 1/2SM FG SCT008 BKN013 22/21 A2987 RMK AO2 T02170211
KBAZ 150821Z AUTO 00000KT 3/4SM BR FEW010 SCT015 21/21 A2987 RMK AO2 T02110211
KBAZ 150819Z AUTO 00000KT 1SM BR VV013 21/21 A2987 RMK AO2 T02110211
KBAZ 150817Z AUTO 00000KT 1 1/2SM BR SCT014 22/21 A2987 RMK AO2 T02170211
KBAZ 150815Z AUTO 00000KT 2SM BR SCT014 22/21 A2987 RMK AO2 T02170211
KBAZ 150807Z AUTO 00000KT 2 1/2SM BR BKN014 22/21 A2987 RMK AO2 T02170211
KBAZ 150758Z AUTO 00000KT 3SM BR BKN012 22/21 A2987 RMK AO2 T02170211
KBAZ 150751Z AUTO 00000KT 1 3/4SM BR OVC012 22/21 A2988 RMK AO2 SLP108 T02170211
KBAZ 150748Z AUTO 00000KT 1 3/4SM BR OVC012 22/21 A2988 RMK AO2
KBAZ 150743Z AUTO 00000KT 3SM BR OVC012 21/21 A2987 RMK AO2 T02110211
KBAZ 150740Z AUTO 00000KT 1 1/2SM BR OVC012 21/21 A2987 RMK AO2 T02110211
KBAZ 150712Z AUTO 00000KT 3/4SM BR BKN014 21/21 A2987 RMK AO2 T02110206
KBAZ 150710Z AUTO 00000KT 1 1/4SM BR BKN014 21/21 A2987 RMK AO2 T02110206
KBAZ 150704Z AUTO 00000KT 2 1/2SM BR BKN013 21/21 A2987 RMK AO2 T02110206
KBAZ 150651Z AUTO 00000KT 2 1/2SM BR FEW013 SCT017 21/21 A2987 RMK AO2 SLP107 T02110206